createdAt,value
2019-01-20T00:01:00.000Z,98641
2019-01-20T00:06:00.000Z,98631
2019-01-20T00:11:00.000Z,98641
2019-01-20T00:16:00.000Z,98644
2019-01-20T00:21:00.000Z,98625
2019-01-20T00:26:00.000Z,98636
2019-01-20T00:31:00.000Z,98632
2019-01-20T00:36:00.000Z,98625
2019-01-20T00:41:00.000Z,98620
2019-01-20T00:46:00.000Z,98615
2019-01-20T00:51:00.000Z,98603
2019-01-20T00:56:00.000Z,98606
2019-01-20T01:01:00.000Z,98616
2019-01-20T01:06:00.000Z,98606
2019-01-20T01:11:00.000Z,98606
2019-01-20T01:16:00.000Z,98603
2019-01-20T01:21:00.000Z,98606
2019-01-20T01:26:00.000Z,98607
2019-01-20T01:31:00.000Z,98598
2019-01-20T01:36:00.000Z,98591
2019-01-20T01:41:00.000Z,98594
2019-01-20T01:46:00.000Z,98595
2019-01-20T01:51:00.000Z,98589
2019-01-20T01:56:00.000Z,98579
2019-01-20T02:01:00.000Z,98584
2019-01-20T02:06:00.000Z,98578
2019-01-20T02:11:00.000Z,98586
2019-01-20T02:16:00.000Z,98572
2019-01-20T02:21:00.000Z,98583
2019-01-20T02:26:00.000Z,98571
2019-01-20T02:31:00.000Z,98580
2019-01-20T02:36:00.000Z,98578
2019-01-20T02:41:00.000Z,98571
2019-01-20T02:46:00.000Z,98570
2019-01-20T02:51:00.000Z,98567
2019-01-20T02:56:00.000Z,98576
2019-01-20T03:01:00.000Z,98568
2019-01-20T03:06:00.000Z,98560
2019-01-20T03:11:00.000Z,98563
2019-01-20T03:17:00.000Z,98559
2019-01-20T03:22:00.000Z,98557
2019-01-20T03:27:00.000Z,98567
2019-01-20T03:32:00.000Z,98554
2019-01-20T03:37:00.000Z,98551
2019-01-20T03:42:00.000Z,98553
2019-01-20T03:47:00.000Z,98548
2019-01-20T03:52:00.000Z,98543
2019-01-20T03:57:00.000Z,98552
2019-01-20T04:02:00.000Z,98538
2019-01-20T04:07:00.000Z,98541
2019-01-20T04:12:00.000Z,98532
2019-01-20T04:17:00.000Z,98537
2019-01-20T04:22:00.000Z,98533
2019-01-20T04:27:00.000Z,98532
2019-01-20T04:32:00.000Z,98528
2019-01-20T04:37:00.000Z,98526
2019-01-20T04:42:00.000Z,98527
2019-01-20T04:47:00.000Z,98512
2019-01-20T04:52:00.000Z,98505
2019-01-20T04:57:00.000Z,98514
2019-01-20T05:02:00.000Z,98517
2019-01-20T05:07:00.000Z,98522
2019-01-20T05:12:00.000Z,98525
2019-01-20T05:17:00.000Z,98518
2019-01-20T05:22:00.000Z,98520
2019-01-20T05:27:00.000Z,98511
2019-01-20T05:32:00.000Z,98528
2019-01-20T05:37:00.000Z,98527
2019-01-20T05:42:00.000Z,98533
2019-01-20T05:47:00.000Z,98524
2019-01-20T05:52:00.000Z,98519
2019-01-20T05:57:00.000Z,98529
2019-01-20T06:02:00.000Z,98528
2019-01-20T06:07:00.000Z,98534
2019-01-20T06:12:00.000Z,98526
2019-01-20T06:17:00.000Z,98527
2019-01-20T06:22:00.000Z,98530
2019-01-20T06:27:00.000Z,98535
2019-01-20T06:32:00.000Z,98534
2019-01-20T06:37:00.000Z,98537
2019-01-20T06:42:00.000Z,98555
2019-01-20T06:48:00.000Z,98555
2019-01-20T06:53:00.000Z,98564
2019-01-20T06:58:00.000Z,98586
2019-01-20T07:03:00.000Z,98582
2019-01-20T07:08:00.000Z,98578
2019-01-20T07:13:00.000Z,98583
2019-01-20T07:18:00.000Z,98579
2019-01-20T07:23:00.000Z,98588
2019-01-20T07:28:00.000Z,98593
2019-01-20T07:33:00.000Z,98600
2019-01-20T07:38:00.000Z,98607
2019-01-20T07:43:00.000Z,98608
2019-01-20T07:48:00.000Z,98615
2019-01-20T07:53:00.000Z,98619
2019-01-20T07:58:00.000Z,98620
2019-01-20T08:03:00.000Z,98633
2019-01-20T08:08:00.000Z,98633
2019-01-20T08:13:00.000Z,98634
2019-01-20T08:18:00.000Z,98636
2019-01-20T08:23:00.000Z,98653
2019-01-20T08:28:00.000Z,98649
2019-01-20T08:33:00.000Z,98664
2019-01-20T08:38:00.000Z,98663
2019-01-20T08:43:00.000Z,98661
2019-01-20T08:48:00.000Z,98657
2019-01-20T08:53:00.000Z,98673
2019-01-20T08:58:00.000Z,98664
2019-01-20T09:03:00.000Z,98668
2019-01-20T09:08:00.000Z,98679
2019-01-20T09:13:00.000Z,98678
2019-01-20T09:18:00.000Z,98695
2019-01-20T09:23:00.000Z,98697
2019-01-20T09:28:00.000Z,98690
2019-01-20T09:33:00.000Z,98699
2019-01-20T09:38:00.000Z,98700
2019-01-20T09:43:00.000Z,98698
2019-01-20T09:48:00.000Z,98697
2019-01-20T09:53:00.000Z,98697
2019-01-20T09:58:00.000Z,98699
2019-01-20T10:03:00.000Z,98702
2019-01-20T10:08:00.000Z,98699
2019-01-20T10:13:00.000Z,98696
2019-01-20T10:18:00.000Z,98683
2019-01-20T10:23:00.000Z,98690
2019-01-20T10:28:00.000Z,98690
2019-01-20T10:33:00.000Z,98679
2019-01-20T10:38:00.000Z,98681
2019-01-20T10:43:00.000Z,98674
2019-01-20T10:49:00.000Z,98681
2019-01-20T10:54:00.000Z,98678
2019-01-20T10:59:00.000Z,98690
2019-01-20T11:04:00.000Z,98690
2019-01-20T11:09:00.000Z,98682
2019-01-20T11:14:00.000Z,98687
2019-01-20T11:19:00.000Z,98682
2019-01-20T11:24:00.000Z,98684
2019-01-20T11:29:00.000Z,98684
2019-01-20T11:34:00.000Z,98675
2019-01-20T11:39:00.000Z,98673
2019-01-20T11:44:00.000Z,98675
2019-01-20T11:49:00.000Z,98671
2019-01-20T11:54:00.000Z,98670
2019-01-20T11:59:00.000Z,98665
2019-01-20T12:04:00.000Z,98674
2019-01-20T12:09:00.000Z,98662
2019-01-20T12:14:00.000Z,98651
2019-01-20T12:19:00.000Z,98667
2019-01-20T12:24:00.000Z,98667
2019-01-20T12:29:00.000Z,98671
2019-01-20T12:34:00.000Z,98667
2019-01-20T12:39:00.000Z,98667
2019-01-20T12:44:00.000Z,98664
2019-01-20T12:49:00.000Z,98660
2019-01-20T12:54:00.000Z,98657
2019-01-20T12:59:00.000Z,98666
2019-01-20T13:04:00.000Z,98667
2019-01-20T13:09:00.000Z,98667
2019-01-20T13:14:00.000Z,98667
2019-01-20T13:19:00.000Z,98666
2019-01-20T13:24:00.000Z,98674
2019-01-20T13:29:00.000Z,98677
2019-01-20T13:34:00.000Z,98677
2019-01-20T13:39:00.000Z,98680
2019-01-20T13:44:00.000Z,98677
2019-01-20T13:49:00.000Z,98686
2019-01-20T13:54:00.000Z,98694
2019-01-20T13:59:00.000Z,98695
2019-01-20T14:04:00.000Z,98694
2019-01-20T14:09:00.000Z,98700
2019-01-20T14:14:00.000Z,98703
2019-01-20T14:19:00.000Z,98701
2019-01-20T14:24:00.000Z,98709
2019-01-20T14:29:00.000Z,98704
2019-01-20T14:34:00.000Z,98715
2019-01-20T14:39:00.000Z,98725
2019-01-20T14:44:00.000Z,98728
2019-01-20T14:50:00.000Z,98720
2019-01-20T14:55:00.000Z,98724
2019-01-20T15:00:00.000Z,98735
2019-01-20T15:05:00.000Z,98729
2019-01-20T15:10:00.000Z,98732
2019-01-20T15:15:00.000Z,98737
2019-01-20T15:20:00.000Z,98732
2019-01-20T15:25:00.000Z,98740
2019-01-20T15:30:00.000Z,98756
2019-01-20T15:35:00.000Z,98750
2019-01-20T15:40:00.000Z,98757
2019-01-20T15:45:00.000Z,98762
2019-01-20T15:50:00.000Z,98754
2019-01-20T15:55:00.000Z,98775
2019-01-20T16:00:00.000Z,98770
2019-01-20T16:05:00.000Z,98779
2019-01-20T16:10:00.000Z,98780
2019-01-20T16:15:00.000Z,98788
2019-01-20T16:20:00.000Z,98793
2019-01-20T16:25:00.000Z,98792
2019-01-20T16:30:00.000Z,98801
2019-01-20T16:35:00.000Z,98795
2019-01-20T16:40:00.000Z,98806
2019-01-20T16:45:00.000Z,98805
2019-01-20T16:50:00.000Z,98814
2019-01-20T16:55:00.000Z,98810
2019-01-20T17:00:00.000Z,98815
2019-01-20T17:05:00.000Z,98828
2019-01-20T17:10:00.000Z,98830
2019-01-20T17:15:00.000Z,98818
2019-01-20T17:20:00.000Z,98829
2019-01-20T17:25:00.000Z,98839
2019-01-20T17:30:00.000Z,98839
2019-01-20T17:35:00.000Z,98842
2019-01-20T17:40:00.000Z,98846
2019-01-20T17:45:00.000Z,98845
2019-01-20T17:50:00.000Z,98856
2019-01-20T17:55:00.000Z,98860
2019-01-20T18:00:00.000Z,98866
2019-01-20T18:05:00.000Z,98870
2019-01-20T18:10:00.000Z,98882
2019-01-20T18:15:00.000Z,98880
2019-01-20T18:20:00.000Z,98898
2019-01-20T18:25:00.000Z,98885
2019-01-20T18:30:00.000Z,98894
2019-01-20T18:35:00.000Z,98899
2019-01-20T18:41:00.000Z,98901
2019-01-20T18:46:00.000Z,98909
2019-01-20T18:51:00.000Z,98919
2019-01-20T18:56:00.000Z,98929
2019-01-20T19:01:00.000Z,98919
2019-01-20T19:06:00.000Z,98921
2019-01-20T19:11:00.000Z,98906
2019-01-20T19:16:00.000Z,98915
2019-01-20T19:21:00.000Z,98904
2019-01-20T19:26:00.000Z,98930
2019-01-20T19:31:00.000Z,98921
2019-01-20T19:36:00.000Z,98927
2019-01-20T19:41:00.000Z,98935
2019-01-20T19:46:00.000Z,98948
2019-01-20T19:51:00.000Z,98946
2019-01-20T19:56:00.000Z,98942
2019-01-20T20:01:00.000Z,98932
2019-01-20T20:06:00.000Z,98939
2019-01-20T20:11:00.000Z,98955
2019-01-20T20:16:00.000Z,98950
2019-01-20T20:21:00.000Z,98953
2019-01-20T20:26:00.000Z,98957
2019-01-20T20:31:00.000Z,98968
2019-01-20T20:36:00.000Z,98966
2019-01-20T20:41:00.000Z,98978
2019-01-20T20:46:00.000Z,98985
2019-01-20T20:51:00.000Z,98986
2019-01-20T20:56:00.000Z,98981
2019-01-20T21:01:00.000Z,98988
2019-01-20T21:06:00.000Z,98979
2019-01-20T21:11:00.000Z,98993
2019-01-20T21:16:00.000Z,98984
2019-01-20T21:21:00.000Z,98997
2019-01-20T21:26:00.000Z,98996
2019-01-20T21:31:00.000Z,99008
2019-01-20T21:36:00.000Z,99013
2019-01-20T21:41:00.000Z,99026
2019-01-20T21:46:00.000Z,99032
2019-01-20T21:51:00.000Z,99045
2019-01-20T21:56:00.000Z,99037
2019-01-20T22:01:00.000Z,99040
2019-01-20T22:06:00.000Z,99054
2019-01-20T22:11:00.000Z,99045
2019-01-20T22:16:00.000Z,99048
2019-01-20T22:21:00.000Z,99053
2019-01-20T22:26:00.000Z,99058
2019-01-20T22:31:00.000Z,99059
2019-01-20T22:36:00.000Z,99061
2019-01-20T22:41:00.000Z,99068
2019-01-20T22:46:00.000Z,99068
2019-01-20T22:52:00.000Z,99065
2019-01-20T22:57:00.000Z,99069
2019-01-20T23:02:00.000Z,99056
2019-01-20T23:07:00.000Z,99064
2019-01-20T23:12:00.000Z,99063
2019-01-20T23:17:00.000Z,99054
2019-01-20T23:22:00.000Z,99053
2019-01-20T23:27:00.000Z,99056
2019-01-20T23:32:00.000Z,99053
2019-01-20T23:37:00.000Z,99064
2019-01-20T23:42:00.000Z,99056
2019-01-20T23:47:00.000Z,99051
2019-01-20T23:52:00.000Z,99070
2019-01-20T23:57:00.000Z,99054
